Coltishall, United Kingdom
Current Conditions -  °F | °C
As of 3:20 PM on Thursday 18 Dec 2014 (Local Time) from EGSH Reporting Station
Broken Clouds Broken Clouds  
Wind Chill: 55°   Ceiling: 2000
Heat Index: 55°   Visibility: 6mi
Dew Point: 52°   Wind: 21mph
Humidity: 88%   Direction: 230°SW
Pressure: 29.65"   Gusts: NA
Location:  52.73°N, 1.37°E
Report Text: EGSH 181520Z 23018KT 200V270 9999 BKN020 13/11 Q1004 NOSIG
Loading
Personal Weather Stations






























Interactive Weather Map New forecast layout! Learn more

10-Day Weather Forecast

Advertisements
Track Severe Weather on mobile